createdAt,value
2023-04-15T00:00:28.254Z,2.06
2023-04-15T00:01:28.298Z,2.06
2023-04-15T00:02:28.457Z,2.07
2023-04-15T00:03:28.585Z,2.07
2023-04-15T00:04:28.660Z,2.08
2023-04-15T00:05:28.448Z,2.11
2023-04-15T00:06:28.495Z,2.05
2023-04-15T00:07:28.553Z,2.07
2023-04-15T00:08:28.606Z,2.08
2023-04-15T00:09:28.692Z,2.06
2023-04-15T00:10:28.678Z,2.08
2023-04-15T00:11:28.759Z,2.08
2023-04-15T00:12:28.773Z,2.11
2023-04-15T00:13:28.826Z,2.05
2023-04-15T00:14:28.893Z,2.08
2023-04-15T00:15:28.896Z,2.08
2023-04-15T00:16:28.981Z,2.07
2023-04-15T00:18:14.591Z,0.50
2023-04-15T00:19:14.582Z,0.50
2023-04-15T00:20:14.586Z,0.50
2023-04-15T00:21:14.545Z,0.50
2023-04-15T00:22:14.530Z,0.50
2023-04-15T00:23:14.542Z,0.51
2023-04-15T00:24:14.575Z,0.50
2023-04-15T00:25:14.560Z,0.50
2023-04-15T00:26:14.522Z,0.51
2023-04-15T00:27:14.525Z,0.51
2023-04-15T00:28:14.507Z,0.52
2023-04-15T00:29:14.493Z,0.52
2023-04-15T00:30:14.481Z,0.51
2023-04-15T00:31:14.504Z,0.51
2023-04-15T00:32:14.472Z,0.52
2023-04-15T00:33:14.550Z,0.52
2023-04-15T00:34:14.510Z,0.51
2023-04-15T00:35:14.447Z,0.51
2023-04-15T00:36:14.446Z,0.52
2023-04-15T00:37:14.442Z,0.52
2023-04-15T00:38:14.415Z,0.51
2023-04-15T00:39:14.449Z,0.51
2023-04-15T00:40:14.417Z,0.52
2023-04-15T00:41:14.409Z,0.53
2023-04-15T00:42:14.409Z,0.51
2023-04-15T00:43:14.383Z,0.50
2023-04-15T00:44:14.507Z,0.51
2023-04-15T00:45:14.522Z,0.51
2023-04-15T00:46:14.593Z,0.52
2023-04-15T00:47:14.630Z,0.51
2023-04-15T00:48:14.670Z,0.52
2023-04-15T00:49:14.727Z,0.52
2023-04-15T00:50:14.796Z,0.50
2023-04-15T00:51:14.902Z,0.52
2023-04-15T00:52:14.907Z,0.51
2023-04-15T00:53:14.955Z,0.52
2023-04-15T00:54:15.057Z,0.52
2023-04-15T00:55:15.133Z,0.52
2023-04-15T00:56:15.150Z,0.51
2023-04-15T00:57:15.193Z,0.52
2023-04-15T00:58:15.307Z,0.52
2023-04-15T00:59:15.336Z,0.52
2023-04-15T01:00:15.379Z,0.51
2023-04-15T01:01:15.463Z,0.53
2023-04-15T01:02:15.616Z,0.52
2023-04-15T01:03:15.787Z,0.53
2023-04-15T01:04:15.768Z,0.50
2023-04-15T01:05:15.685Z,0.51
2023-04-15T01:06:15.755Z,0.52
2023-04-15T01:07:15.848Z,0.51
2023-04-15T01:08:15.888Z,0.52
2023-04-15T01:09:15.982Z,0.52
2023-04-15T01:10:15.993Z,0.52
2023-04-15T01:11:16.070Z,0.52
2023-04-15T01:12:16.126Z,0.53
2023-04-15T01:13:16.207Z,0.52
2023-04-15T01:14:16.262Z,0.52
2023-04-15T01:15:16.333Z,0.52
2023-04-15T01:16:16.405Z,0.52
2023-04-15T01:17:16.445Z,0.53
2023-04-15T01:18:16.494Z,0.52
2023-04-15T01:19:16.562Z,0.53
2023-04-15T01:20:16.621Z,0.52
2023-04-15T01:21:16.673Z,0.51
2023-04-15T01:22:16.713Z,0.51
2023-04-15T01:23:16.810Z,0.52
2023-04-15T01:24:16.855Z,0.52
2023-04-15T01:25:16.951Z,0.52
2023-04-15T01:26:16.988Z,0.52
2023-04-15T01:27:17.016Z,0.52
2023-04-15T01:28:17.084Z,0.53
2023-04-15T01:29:17.197Z,0.51
2023-04-15T01:30:17.213Z,0.52
2023-04-15T01:31:17.361Z,0.52
2023-04-15T01:32:17.354Z,0.52
2023-04-15T01:33:17.427Z,0.52
2023-04-15T01:34:17.504Z,0.52
2023-04-15T01:35:17.544Z,0.52
2023-04-15T01:36:17.595Z,0.53
2023-04-15T01:37:17.659Z,0.51
2023-04-15T01:38:17.717Z,0.52
2023-04-15T01:39:17.801Z,0.53
2023-04-15T01:40:17.889Z,0.52
2023-04-15T01:41:17.913Z,0.51
2023-04-15T01:42:17.977Z,0.52
2023-04-15T01:43:18.047Z,0.52
2023-04-15T01:44:18.104Z,0.51
2023-04-15T01:45:18.236Z,0.53
2023-04-15T01:46:18.244Z,0.52
2023-04-15T01:47:18.367Z,0.51
2023-04-15T01:48:18.347Z,0.52
2023-04-15T01:49:18.417Z,0.52
2023-04-15T01:50:18.480Z,0.52
2023-04-15T01:51:18.600Z,0.52
2023-04-15T01:52:18.613Z,0.52
2023-04-15T01:53:18.681Z,0.52
2023-04-15T01:54:18.751Z,0.52
2023-04-15T01:55:18.825Z,0.53
2023-04-15T01:56:18.853Z,0.53
2023-04-15T01:57:18.937Z,0.52
2023-04-15T01:58:19.003Z,0.52
2023-04-15T01:59:19.037Z,0.52
2023-04-15T02:00:19.127Z,0.53
2023-04-15T02:01:19.217Z,0.52
2023-04-15T02:02:19.247Z,0.52
2023-04-15T02:03:19.446Z,0.52
2023-04-15T02:04:19.377Z,0.51
2023-04-15T02:05:19.442Z,0.52
2023-04-15T02:06:19.494Z,0.51
2023-04-15T02:07:19.557Z,0.52
2023-04-15T02:08:19.643Z,0.52
2023-04-15T02:09:19.805Z,0.52
2023-04-15T02:10:19.810Z,0.52
2023-04-15T02:11:19.839Z,0.52
2023-04-15T02:12:19.879Z,0.51
2023-04-15T02:13:19.916Z,0.52
2023-04-15T02:14:20.064Z,0.51
2023-04-15T02:15:20.069Z,0.52
2023-04-15T02:16:20.154Z,0.51
2023-04-15T02:17:20.193Z,0.51
2023-04-15T02:18:20.318Z,0.52
2023-04-15T02:19:20.302Z,0.52
2023-04-15T02:20:20.819Z,0.51
2023-04-15T02:21:20.441Z,0.52
2023-04-15T02:22:20.456Z,0.51
2023-04-15T02:23:20.516Z,0.52
2023-04-15T02:24:20.584Z,0.53
2023-04-15T02:25:20.683Z,0.51
2023-04-15T02:26:20.683Z,0.52
2023-04-15T02:27:20.765Z,0.52
2023-04-15T02:28:20.812Z,0.52
2023-04-15T02:29:20.865Z,0.52
2023-04-15T02:30:21.298Z,0.51
2023-04-15T02:31:21.028Z,0.51
2023-04-15T02:32:21.119Z,0.51
2023-04-15T02:33:21.092Z,0.52
2023-04-15T02:34:21.164Z,0.51
2023-04-15T02:35:21.205Z,0.52
2023-04-15T02:36:21.276Z,0.52
2023-04-15T02:37:21.309Z,0.53
2023-04-15T02:38:21.406Z,0.51
2023-04-15T02:39:21.420Z,0.51
2023-04-15T02:40:21.456Z,0.52
2023-04-15T02:41:21.510Z,0.51
2023-04-15T02:42:21.550Z,0.52
2023-04-15T02:43:21.634Z,0.52
2023-04-15T02:44:21.663Z,0.52
2023-04-15T02:45:21.684Z,0.50
2023-04-15T02:46:21.793Z,0.51
2023-04-15T02:47:21.824Z,0.51
2023-04-15T02:48:21.822Z,0.52
2023-04-15T02:49:21.836Z,0.51
2023-04-15T02:50:21.868Z,0.51
2023-04-15T02:51:21.948Z,0.51
2023-04-15T02:52:21.996Z,0.51
2023-04-15T02:53:22.006Z,0.51
2023-04-15T02:54:22.075Z,0.51
2023-04-15T02:55:22.109Z,0.51
2023-04-15T02:56:22.185Z,0.52
2023-04-15T02:57:22.229Z,0.51
2023-04-15T02:58:22.326Z,0.52
2023-04-15T02:59:22.285Z,0.51
2023-04-15T03:00:22.379Z,0.52
2023-04-15T03:01:22.423Z,0.51
2023-04-15T03:02:22.508Z,0.52
2023-04-15T03:03:22.658Z,0.52
2023-04-15T03:04:22.642Z,0.51
2023-04-15T03:05:22.588Z,0.51
2023-04-15T03:06:22.606Z,0.52
2023-04-15T03:07:22.646Z,0.51
2023-04-15T03:08:22.687Z,0.52
2023-04-15T03:09:22.735Z,0.52
2023-04-15T03:10:22.783Z,0.52
2023-04-15T03:11:22.816Z,0.51
2023-04-15T03:12:22.857Z,0.52
2023-04-15T03:13:22.965Z,0.51
2023-04-15T03:14:22.943Z,0.52
2023-04-15T03:15:23.114Z,0.51
2023-04-15T03:16:23.016Z,0.52
2023-04-15T03:17:23.078Z,0.51
2023-04-15T03:18:23.109Z,0.51
2023-04-15T03:19:23.169Z,0.52
2023-04-15T03:20:23.357Z,0.52
2023-04-15T03:21:23.262Z,0.53
2023-04-15T03:22:23.297Z,0.51
2023-04-15T03:23:23.358Z,0.52
2023-04-15T03:24:23.419Z,0.51
2023-04-15T03:25:23.475Z,0.52
2023-04-15T03:26:23.503Z,0.52
2023-04-15T03:27:23.534Z,0.52
2023-04-15T03:28:23.583Z,0.52
2023-04-15T03:29:23.614Z,0.52
2023-04-15T03:30:23.692Z,0.52
2023-04-15T03:31:23.732Z,0.52
2023-04-15T03:32:23.795Z,0.51
2023-04-15T03:33:23.777Z,0.52
2023-04-15T03:34:23.813Z,0.53
2023-04-15T03:35:23.876Z,0.51
2023-04-15T03:36:23.911Z,0.52
2023-04-15T03:37:23.959Z,0.52
2023-04-15T03:38:23.993Z,0.53
2023-04-15T03:39:24.076Z,0.51
2023-04-15T03:40:24.079Z,0.51
2023-04-15T03:41:24.108Z,0.52
2023-04-15T03:42:24.198Z,0.51
2023-04-15T03:43:24.214Z,0.52
2023-04-15T03:44:24.226Z,0.52
2023-04-15T03:45:24.296Z,0.54
2023-04-15T03:46:24.399Z,0.52
2023-04-15T03:47:24.453Z,0.53
2023-04-15T03:48:24.523Z,0.51
2023-04-15T03:49:24.515Z,0.51
2023-04-15T03:50:24.577Z,0.53
2023-04-15T03:51:24.647Z,0.53
2023-04-15T03:52:24.646Z,0.51
2023-04-15T03:53:24.682Z,0.52
2023-04-15T03:54:24.730Z,0.52
2023-04-15T03:55:24.747Z,0.51
2023-04-15T03:56:24.798Z,0.51
2023-04-15T03:57:24.803Z,0.52
2023-04-15T03:58:24.859Z,0.51
2023-04-15T03:59:24.889Z,0.53
2023-04-15T04:00:25.358Z,0.52
2023-04-15T04:01:24.982Z,0.51
2023-04-15T04:02:25.239Z,0.51
2023-04-15T04:03:25.161Z,0.53
2023-04-15T04:04:25.196Z,0.52
2023-04-15T04:05:25.176Z,0.53
2023-04-15T04:06:25.178Z,0.52
2023-04-15T04:07:25.277Z,0.52
2023-04-15T04:08:25.242Z,0.51
2023-04-15T04:09:25.272Z,0.52
2023-04-15T04:10:25.353Z,0.51
2023-04-15T04:11:25.366Z,0.51
2023-04-15T04:12:25.449Z,0.51
2023-04-15T04:13:25.468Z,0.53
2023-04-15T04:14:25.528Z,0.53
2023-04-15T04:15:25.645Z,0.52
2023-04-15T04:16:25.630Z,0.51
2023-04-15T04:17:25.657Z,0.52
2023-04-15T04:18:25.603Z,0.52
2023-04-15T04:19:25.619Z,0.51
2023-04-15T04:20:25.631Z,0.51
2023-04-15T04:21:25.657Z,0.52
2023-04-15T04:22:25.753Z,0.52
2023-04-15T04:23:25.750Z,0.53
2023-04-15T04:24:25.770Z,0.53
2023-04-15T04:25:25.840Z,0.52
2023-04-15T04:26:25.846Z,0.54
2023-04-15T04:27:25.874Z,0.52
2023-04-15T04:28:25.896Z,0.53
2023-04-15T04:29:25.902Z,0.53
2023-04-15T04:30:25.926Z,0.52
2023-04-15T04:31:25.967Z,0.52
2023-04-15T04:32:26.049Z,0.52
2023-04-15T04:33:26.051Z,0.53
2023-04-15T04:34:26.050Z,0.52
2023-04-15T04:35:26.106Z,0.52
2023-04-15T04:36:26.144Z,0.51
2023-04-15T04:37:26.157Z,0.52
2023-04-15T04:38:26.229Z,0.51
2023-04-15T04:39:26.244Z,0.52
2023-04-15T04:40:26.289Z,0.53
2023-04-15T04:41:26.289Z,0.52
2023-04-15T04:42:26.292Z,0.52
2023-04-15T04:43:26.325Z,0.52
2023-04-15T04:44:26.342Z,0.52
2023-04-15T04:45:26.360Z,0.51
2023-04-15T04:46:26.366Z,0.53
2023-04-15T04:47:26.437Z,0.52
2023-04-15T04:48:26.418Z,0.51
2023-04-15T04:49:26.404Z,0.52
2023-04-15T04:50:26.452Z,0.51
2023-04-15T04:51:26.443Z,0.52
2023-04-15T04:52:26.491Z,0.52
2023-04-15T04:53:26.454Z,0.51
2023-04-15T04:54:26.471Z,0.51
2023-04-15T04:55:26.548Z,0.52
2023-04-15T04:56:26.561Z,0.52
2023-04-15T04:57:26.576Z,0.52
2023-04-15T04:58:26.592Z,0.51
2023-04-15T04:59:26.592Z,0.51
2023-04-15T05:00:26.598Z,0.53
2023-04-15T05:01:26.625Z,0.53
2023-04-15T05:02:26.739Z,0.52
2023-04-15T05:03:26.784Z,0.52
2023-04-15T05:04:26.710Z,0.51
2023-04-15T05:05:26.695Z,0.52
2023-04-15T05:06:26.721Z,0.52
2023-04-15T05:07:26.772Z,0.52
2023-04-15T05:08:26.801Z,0.51
2023-04-15T05:09:26.798Z,0.52
2023-04-15T05:10:26.836Z,0.52
2023-04-15T05:11:26.913Z,0.52
2023-04-15T05:12:26.918Z,0.52
2023-04-15T05:13:26.937Z,0.52
2023-04-15T05:14:26.950Z,0.51
2023-04-15T05:15:26.986Z,0.52
2023-04-15T05:16:26.986Z,0.52
2023-04-15T05:17:27.060Z,0.51
2023-04-15T05:18:27.087Z,0.52
2023-04-15T05:19:27.041Z,0.52
2023-04-15T05:20:27.114Z,0.52
2023-04-15T05:21:27.128Z,0.52
2023-04-15T05:22:27.165Z,0.52
2023-04-15T05:23:27.240Z,0.51
2023-04-15T05:24:27.234Z,0.52
2023-04-15T05:25:27.253Z,0.53
2023-04-15T05:26:27.273Z,0.53
2023-04-15T05:27:27.307Z,0.51
2023-04-15T05:28:27.334Z,0.52
2023-04-15T05:29:27.363Z,0.50
2023-04-15T05:30:27.388Z,0.51
2023-04-15T05:31:27.471Z,0.52
2023-04-15T05:32:27.492Z,0.52
2023-04-15T05:33:27.511Z,0.52
2023-04-15T05:34:27.582Z,0.52
2023-04-15T05:35:27.609Z,0.52
2023-04-15T05:36:27.638Z,0.50
2023-04-15T05:37:27.693Z,0.51
2023-04-15T05:38:27.707Z,0.52
2023-04-15T05:39:27.724Z,0.53
2023-04-15T05:40:27.740Z,0.51
2023-04-15T05:41:27.785Z,0.52
2023-04-15T05:42:27.837Z,0.53
2023-04-15T05:43:27.853Z,0.51
2023-04-15T05:44:27.884Z,0.52
2023-04-15T05:45:27.947Z,0.52
2023-04-15T05:46:27.994Z,0.51
2023-04-15T05:47:28.009Z,0.51
2023-04-15T05:48:28.001Z,0.52
2023-04-15T05:49:28.034Z,0.51
2023-04-15T05:50:28.391Z,0.52
2023-04-15T05:51:28.104Z,0.51
2023-04-15T05:52:28.129Z,0.51
2023-04-15T05:53:28.147Z,0.51
2023-04-15T05:54:28.178Z,0.52
2023-04-15T05:55:28.179Z,0.52
2023-04-15T05:56:28.247Z,0.52
2023-04-15T05:57:28.898Z,0.52
2023-04-15T05:58:28.285Z,0.53
2023-04-15T05:59:28.321Z,0.53
2023-04-15T06:00:28.374Z,0.53
2023-04-15T06:01:28.405Z,0.53
2023-04-15T06:02:28.487Z,0.53
2023-04-15T06:03:28.566Z,0.52
2023-04-15T06:04:28.572Z,0.52
2023-04-15T06:05:28.535Z,0.53
2023-04-15T06:06:28.892Z,0.51
2023-04-15T06:07:28.604Z,0.53
2023-04-15T06:08:28.619Z,0.52
2023-04-15T06:09:28.642Z,0.53
2023-04-15T06:10:28.681Z,0.52
2023-04-15T06:11:28.722Z,0.51
2023-04-15T06:12:28.800Z,0.52
2023-04-15T06:13:28.786Z,0.52
2023-04-15T06:14:28.844Z,0.52
2023-04-15T06:15:28.867Z,0.52
2023-04-15T06:16:28.992Z,0.52
2023-04-15T06:17:28.957Z,0.51
2023-04-15T06:18:29.008Z,0.51
2023-04-15T06:19:29.029Z,0.52
2023-04-15T06:20:29.176Z,0.52
2023-04-15T06:21:29.111Z,0.51
2023-04-15T06:22:29.174Z,0.52
2023-04-15T06:23:29.170Z,0.51
2023-04-15T06:24:29.246Z,0.52
2023-04-15T06:25:29.404Z,0.51
2023-04-15T06:26:29.319Z,0.51
2023-04-15T06:27:29.355Z,0.51
2023-04-15T06:28:29.381Z,0.52
2023-04-15T06:29:29.433Z,0.51
2023-04-15T06:30:29.466Z,0.52
2023-04-15T06:31:29.589Z,0.53
2023-04-15T06:32:29.560Z,0.52
2023-04-15T06:33:29.569Z,0.51
2023-04-15T06:34:29.633Z,0.52
2023-04-15T06:35:29.646Z,0.52
2023-04-15T06:36:29.725Z,0.51
2023-04-15T06:37:29.740Z,0.52
2023-04-15T06:38:29.794Z,0.53
2023-04-15T06:39:29.811Z,0.52
2023-04-15T06:40:29.905Z,0.52
2023-04-15T06:41:29.917Z,0.52
2023-04-15T06:42:29.929Z,0.51
2023-04-15T06:43:29.995Z,0.51
2023-04-15T06:44:31.213Z,0.52
2023-04-15T06:45:30.259Z,0.51
2023-04-15T06:46:30.305Z,0.51
2023-04-15T06:47:30.366Z,0.52
2023-04-15T06:48:30.399Z,0.52
2023-04-15T06:49:30.480Z,0.52
2023-04-15T06:50:30.489Z,0.51
2023-04-15T06:51:30.606Z,0.51
2023-04-15T06:52:30.584Z,0.52
2023-04-15T06:53:30.660Z,0.52
2023-04-15T06:54:30.694Z,0.52
2023-04-15T06:55:30.754Z,0.51
2023-04-15T06:56:30.805Z,0.52
2023-04-15T06:57:31.954Z,0.52
2023-04-15T06:58:30.942Z,0.51
2023-04-15T06:59:30.906Z,0.51
2023-04-15T07:00:30.966Z,0.51
2023-04-15T07:01:31.090Z,0.52
2023-04-15T07:02:31.074Z,0.50
2023-04-15T07:03:32.770Z,0.51
2023-04-15T07:04:31.139Z,0.50
2023-04-15T07:05:31.163Z,0.51
2023-04-15T07:06:31.193Z,0.52
2023-04-15T07:07:31.251Z,0.52
2023-04-15T07:08:31.251Z,0.51
2023-04-15T07:09:31.303Z,0.53
2023-04-15T07:10:31.329Z,0.51
2023-04-15T07:11:31.361Z,0.51
2023-04-15T07:12:31.405Z,0.53
2023-04-15T07:13:31.456Z,0.52
2023-04-15T07:14:31.492Z,0.51
2023-04-15T07:15:31.574Z,0.51
2023-04-15T07:16:31.634Z,0.53
2023-04-15T07:17:31.654Z,0.52
2023-04-15T07:18:31.663Z,0.51
2023-04-15T07:19:31.708Z,0.52
2023-04-15T07:20:31.788Z,0.51
2023-04-15T07:21:31.854Z,0.52
2023-04-15T07:22:31.917Z,0.51
2023-04-15T07:23:31.962Z,0.51
2023-04-15T07:24:32.081Z,0.52
2023-04-15T07:25:32.090Z,0.52
2023-04-15T07:26:32.155Z,0.51
2023-04-15T07:27:32.247Z,0.51
2023-04-15T07:28:32.272Z,0.51
2023-04-15T07:29:32.317Z,0.51
2023-04-15T07:30:32.371Z,0.51
2023-04-15T07:31:32.527Z,0.51
2023-04-15T07:32:32.511Z,0.51
2023-04-15T07:33:32.544Z,0.52
2023-04-15T07:34:32.819Z,0.51
2023-04-15T07:35:32.686Z,0.50
2023-04-15T07:36:32.762Z,0.52
2023-04-15T07:37:32.821Z,0.51
2023-04-15T07:38:32.832Z,0.52
2023-04-15T07:39:32.924Z,0.51
2023-04-15T07:40:32.985Z,0.51
2023-04-15T07:41:33.036Z,0.51
2023-04-15T07:42:33.118Z,0.52
2023-04-15T07:43:33.156Z,0.52
2023-04-15T07:44:33.207Z,0.51
2023-04-15T07:45:33.272Z,0.52
2023-04-15T07:46:33.432Z,0.51
2023-04-15T07:47:33.570Z,0.51
2023-04-15T07:48:34.481Z,0.52
2023-04-15T07:49:33.557Z,0.52
2023-04-15T07:50:33.620Z,0.51
2023-04-15T07:51:33.676Z,0.51
2023-04-15T07:52:33.732Z,0.51
2023-04-15T07:53:33.784Z,0.51
2023-04-15T07:54:33.890Z,0.52
2023-04-15T07:55:34.020Z,0.52
2023-04-15T07:56:33.967Z,0.51
2023-04-15T07:57:34.087Z,0.52
2023-04-15T07:58:34.097Z,0.52
2023-04-15T07:59:34.163Z,0.51
2023-04-15T08:00:34.251Z,0.52
2023-04-15T08:01:34.306Z,0.52
2023-04-15T08:02:34.615Z,0.53
2023-04-15T08:03:34.581Z,0.51
2023-04-15T08:04:34.566Z,0.51
2023-04-15T08:05:34.550Z,0.53
2023-04-15T08:06:34.572Z,0.52
2023-04-15T08:07:34.663Z,0.51
2023-04-15T08:08:34.729Z,0.51
2023-04-15T08:09:34.776Z,0.52
2023-04-15T08:10:34.848Z,0.50
2023-04-15T08:11:34.911Z,0.51
2023-04-15T08:12:34.970Z,0.51
2023-04-15T08:13:35.007Z,0.51
2023-04-15T08:14:35.061Z,0.52
2023-04-15T08:15:35.167Z,0.52
2023-04-15T08:16:35.289Z,0.51
2023-04-15T08:17:35.323Z,0.51
2023-04-15T08:18:35.315Z,0.51
2023-04-15T08:19:35.381Z,0.52
2023-04-15T08:20:35.468Z,0.51
2023-04-15T08:21:35.535Z,0.51
2023-04-15T08:22:35.619Z,0.53
2023-04-15T08:23:35.628Z,0.51
2023-04-15T08:24:35.697Z,0.51
2023-04-15T08:25:35.742Z,0.52
2023-04-15T08:26:35.836Z,0.51
2023-04-15T08:27:35.881Z,0.52
2023-04-15T08:28:35.943Z,0.53
2023-04-15T08:29:36.037Z,0.51
2023-04-15T08:30:36.063Z,0.52
2023-04-15T08:31:36.145Z,0.50
2023-04-15T08:32:36.234Z,0.51
2023-04-15T08:33:36.224Z,0.50
2023-04-15T08:34:36.307Z,0.51
2023-04-15T08:35:36.332Z,0.51
2023-04-15T08:36:36.421Z,0.51
2023-04-15T08:37:36.470Z,0.52
2023-04-15T08:38:36.548Z,0.51
2023-04-15T08:39:36.576Z,0.52
2023-04-15T08:40:36.640Z,0.52
2023-04-15T08:41:36.675Z,0.50
2023-04-15T08:42:36.761Z,0.52
2023-04-15T08:43:36.809Z,0.52
2023-04-15T08:44:36.871Z,0.51
2023-04-15T08:45:36.901Z,0.52
2023-04-15T08:46:37.047Z,0.52
2023-04-15T08:47:37.056Z,0.53
2023-04-15T08:48:37.104Z,0.51
2023-04-15T08:49:37.161Z,0.51
2023-04-15T08:50:37.242Z,0.52
2023-04-15T08:51:37.250Z,0.52
2023-04-15T08:52:37.316Z,0.50
2023-04-15T08:53:37.359Z,0.52
2023-04-15T08:54:37.455Z,0.51
2023-04-15T08:55:37.533Z,0.52
2023-04-15T08:56:37.657Z,0.51
2023-04-15T08:57:37.647Z,0.52
2023-04-15T08:58:37.654Z,0.51
2023-04-15T08:59:37.738Z,0.51
2023-04-15T09:00:37.778Z,0.50
2023-04-15T09:01:37.942Z,0.52
2023-04-15T09:02:38.131Z,0.52
2023-04-15T09:03:38.008Z,0.51
2023-04-15T09:04:38.014Z,0.50
2023-04-15T09:05:38.095Z,0.52
2023-04-15T09:06:38.137Z,0.52
2023-04-15T09:07:38.192Z,0.51
2023-04-15T09:08:38.242Z,0.52
2023-04-15T09:09:38.340Z,0.51
2023-04-15T09:10:38.349Z,0.52
2023-04-15T09:11:38.439Z,0.51
2023-04-15T09:12:38.493Z,0.51
2023-04-15T09:13:38.558Z,0.50
2023-04-15T09:14:38.579Z,0.52
2023-04-15T09:15:38.644Z,0.51
2023-04-15T09:16:38.698Z,0.53
2023-04-15T09:17:38.820Z,0.52
2023-04-15T09:18:38.815Z,0.52
2023-04-15T09:19:38.858Z,0.51
2023-04-15T09:20:38.936Z,0.51
2023-04-15T09:21:38.970Z,0.52
2023-04-15T09:22:39.037Z,0.53
2023-04-15T09:23:39.062Z,0.51
2023-04-15T09:24:39.184Z,0.51
2023-04-15T09:25:39.187Z,0.51
2023-04-15T09:26:39.243Z,0.52
2023-04-15T09:27:39.258Z,0.51
2023-04-15T09:28:39.331Z,0.51
2023-04-15T09:29:39.342Z,0.52
2023-04-15T09:30:39.424Z,0.51
2023-04-15T09:31:39.436Z,0.51
2023-04-15T09:32:39.528Z,0.52
2023-04-15T09:33:39.521Z,0.51
2023-04-15T09:34:39.555Z,0.52
2023-04-15T09:35:39.633Z,0.52
2023-04-15T09:36:39.642Z,0.51
2023-04-15T09:37:39.709Z,0.51
2023-04-15T09:38:39.801Z,0.50
2023-04-15T09:39:39.784Z,0.51
2023-04-15T09:40:40.494Z,0.52
2023-04-15T09:41:39.856Z,0.52
2023-04-15T09:42:39.916Z,0.52
2023-04-15T09:43:40.011Z,0.52
2023-04-15T09:44:39.972Z,0.52
2023-04-15T09:45:40.038Z,0.52
2023-04-15T09:46:40.022Z,0.52
2023-04-15T09:47:40.090Z,0.52
2023-04-15T09:48:40.082Z,0.52
2023-04-15T09:49:40.123Z,0.51
2023-04-15T09:50:40.173Z,0.52
2023-04-15T09:51:40.193Z,0.52
2023-04-15T09:52:40.181Z,0.53
2023-04-15T09:53:40.229Z,0.51
2023-04-15T09:54:40.241Z,0.52
2023-04-15T09:55:40.274Z,0.50
2023-04-15T09:56:40.291Z,0.52
2023-04-15T09:57:40.376Z,0.51
2023-04-15T09:58:40.368Z,0.51
2023-04-15T09:59:40.438Z,0.51
2023-04-15T10:00:40.420Z,0.51
2023-04-15T10:01:40.500Z,0.51
2023-04-15T10:02:40.668Z,0.52
2023-04-15T10:03:41.145Z,0.52
2023-04-15T10:04:40.560Z,0.52
2023-04-15T10:05:40.579Z,0.50
2023-04-15T10:06:40.588Z,0.52
2023-04-15T10:07:40.652Z,0.52
2023-04-15T10:08:40.656Z,0.51
2023-04-15T10:09:40.699Z,0.52
2023-04-15T10:10:40.728Z,0.53
2023-04-15T10:11:40.748Z,0.52
2023-04-15T10:12:40.757Z,0.51
2023-04-15T10:13:40.814Z,0.53
2023-04-15T10:14:40.813Z,0.51
2023-04-15T10:15:40.886Z,0.51
2023-04-15T10:16:40.878Z,0.51
2023-04-15T10:17:40.974Z,0.52
2023-04-15T10:18:40.953Z,0.52
2023-04-15T10:19:40.973Z,0.51
2023-04-15T10:20:41.051Z,0.52
2023-04-15T10:21:41.055Z,0.52
2023-04-15T10:22:41.068Z,0.52
2023-04-15T10:23:41.127Z,0.52
2023-04-15T10:24:41.147Z,0.52
2023-04-15T10:25:41.211Z,0.51
2023-04-15T10:26:41.185Z,0.52
2023-04-15T10:27:41.247Z,0.52
2023-04-15T10:28:41.266Z,0.53
2023-04-15T10:29:41.298Z,0.51
2023-04-15T10:30:41.319Z,0.51
2023-04-15T10:31:41.434Z,0.51
2023-04-15T10:32:41.439Z,0.51
2023-04-15T10:33:41.504Z,0.52
2023-04-15T10:34:41.513Z,0.52
2023-04-15T10:35:41.498Z,0.51
2023-04-15T10:36:41.558Z,0.52
2023-04-15T10:37:41.599Z,0.51
2023-04-15T10:38:41.562Z,0.52
2023-04-15T10:39:41.678Z,0.52
2023-04-15T10:40:42.035Z,0.51
2023-04-15T10:41:41.672Z,0.51
2023-04-15T10:42:41.713Z,0.51
2023-04-15T10:43:41.736Z,0.52
2023-04-15T10:44:41.822Z,0.52
2023-04-15T10:45:41.828Z,0.51
2023-04-15T10:46:41.874Z,0.51
2023-04-15T10:47:41.884Z,0.51
2023-04-15T10:48:41.940Z,0.52
2023-04-15T10:49:41.951Z,0.52
2023-04-15T10:50:41.976Z,0.51
2023-04-15T10:51:41.992Z,0.51
2023-04-15T10:52:42.064Z,0.52
2023-04-15T10:53:42.058Z,0.52
2023-04-15T10:54:42.102Z,0.50
2023-04-15T10:55:42.120Z,0.51
2023-04-15T10:56:42.167Z,0.52
2023-04-15T10:57:42.200Z,0.52
2023-04-15T10:58:42.224Z,0.52
2023-04-15T10:59:42.296Z,0.52
2023-04-15T11:00:42.513Z,0.52
2023-04-15T11:01:42.358Z,0.51
2023-04-15T11:02:42.609Z,0.51
2023-04-15T11:03:42.531Z,0.52
2023-04-15T11:04:43.182Z,0.52
2023-04-15T11:05:42.448Z,0.52
2023-04-15T11:06:42.467Z,0.52
2023-04-15T11:07:42.540Z,0.51
2023-04-15T11:08:42.530Z,0.52
2023-04-15T11:09:42.559Z,0.51
2023-04-15T11:10:42.596Z,0.52
2023-04-15T11:11:43.282Z,0.52
2023-04-15T11:12:42.630Z,0.51
2023-04-15T11:13:42.648Z,0.51
2023-04-15T11:14:42.704Z,0.52
2023-04-15T11:15:42.785Z,0.51
2023-04-15T11:16:42.816Z,0.53
2023-04-15T11:17:44.120Z,0.51
2023-04-15T11:18:42.809Z,0.53
2023-04-15T11:19:42.750Z,0.51
2023-04-15T11:20:42.793Z,0.52
2023-04-15T11:21:42.792Z,0.52
2023-04-15T11:22:42.722Z,0.51
2023-04-15T11:23:42.741Z,0.52
2023-04-15T11:24:42.720Z,0.52
2023-04-15T11:25:42.727Z,0.51
2023-04-15T11:26:42.695Z,0.52
2023-04-15T11:27:42.691Z,0.51
2023-04-15T11:28:42.676Z,0.52
2023-04-15T11:29:42.689Z,0.53
2023-04-15T11:30:42.725Z,0.51
2023-04-15T11:31:42.693Z,0.50
2023-04-15T11:32:42.695Z,0.51
2023-04-15T11:33:42.664Z,0.52
2023-04-15T11:34:42.660Z,0.51
2023-04-15T11:35:42.670Z,0.51
2023-04-15T11:36:42.637Z,0.52
2023-04-15T11:37:42.648Z,0.51
2023-04-15T11:38:42.619Z,0.51
2023-04-15T11:39:42.598Z,0.51
2023-04-15T11:40:45.324Z,0.53
2023-04-15T11:41:42.605Z,0.53
2023-04-15T11:42:49.683Z,0.53
2023-04-15T11:43:43.618Z,0.53
2023-04-15T11:44:42.600Z,0.52
2023-04-15T11:45:42.641Z,0.53
2023-04-15T11:46:44.469Z,0.52
2023-04-15T11:47:42.623Z,0.53
2023-04-15T11:48:42.597Z,0.50
2023-04-15T11:49:42.586Z,0.52
2023-04-15T11:50:42.578Z,0.52
2023-04-15T11:51:42.540Z,0.51
2023-04-15T11:52:42.546Z,0.51
2023-04-15T11:53:42.528Z,0.51
2023-04-15T11:54:42.524Z,0.52
2023-04-15T11:55:42.517Z,0.52
2023-04-15T11:56:42.506Z,0.51
2023-04-15T11:57:42.486Z,0.51
2023-04-15T11:58:42.530Z,0.51
2023-04-15T11:59:45.383Z,0.52
2023-04-15T12:00:42.475Z,0.53
2023-04-15T12:01:42.474Z,0.53
2023-04-15T12:02:42.595Z,0.52
2023-04-15T12:03:42.629Z,0.52
2023-04-15T12:04:42.713Z,0.52
2023-04-15T12:05:42.445Z,0.53
2023-04-15T12:06:42.433Z,0.52
2023-04-15T12:07:42.457Z,0.52
2023-04-15T12:08:42.490Z,0.52
2023-04-15T12:09:42.411Z,0.52
2023-04-15T12:10:42.418Z,0.51
2023-04-15T12:11:42.488Z,0.52
2023-04-15T12:12:42.389Z,0.52
2023-04-15T12:13:42.376Z,0.51
2023-04-15T12:14:42.384Z,0.53
2023-04-15T12:15:42.414Z,0.52
2023-04-15T12:16:49.706Z,0.52
2023-04-15T12:17:51.041Z,0.52
2023-04-15T12:18:43.353Z,0.52
2023-04-15T12:19:42.428Z,0.53
2023-04-15T12:20:42.342Z,0.52
2023-04-15T12:21:42.356Z,0.51
2023-04-15T12:22:42.324Z,0.52
2023-04-15T12:23:42.353Z,0.52
2023-04-15T12:24:42.305Z,0.52
2023-04-15T12:25:42.334Z,0.52
2023-04-15T12:26:42.311Z,0.51
2023-04-15T12:27:42.315Z,0.53
2023-04-15T12:28:42.274Z,0.52
2023-04-15T12:29:42.316Z,0.52
2023-04-15T12:30:42.270Z,0.52
2023-04-15T12:31:42.305Z,0.52
2023-04-15T12:32:43.527Z,0.51
2023-04-15T12:33:42.280Z,0.51
2023-04-15T12:34:42.262Z,0.51
2023-04-15T12:35:42.277Z,0.52
2023-04-15T12:36:42.232Z,0.52
2023-04-15T12:37:42.261Z,0.51
2023-04-15T12:38:42.244Z,0.51
2023-04-15T12:39:42.255Z,0.52
2023-04-15T12:40:42.213Z,0.51
2023-04-15T12:41:42.233Z,0.52
2023-04-15T12:42:42.189Z,0.52
2023-04-15T12:43:42.212Z,0.51
2023-04-15T12:44:42.201Z,0.52
2023-04-15T12:45:42.554Z,0.51
2023-04-15T12:46:42.200Z,0.51
2023-04-15T12:47:42.207Z,0.52
2023-04-15T12:48:42.227Z,0.51
2023-04-15T12:49:42.169Z,0.52
2023-04-15T12:50:42.158Z,0.52
2023-04-15T12:51:42.156Z,0.53
2023-04-15T12:52:42.124Z,0.52
2023-04-15T12:53:42.142Z,0.51
2023-04-15T12:54:42.109Z,0.51
2023-04-15T12:55:42.187Z,0.52
2023-04-15T12:56:42.104Z,0.51
2023-04-15T12:57:42.122Z,0.50
2023-04-15T12:58:42.131Z,0.51
2023-04-15T12:59:42.119Z,0.51
2023-04-15T13:00:42.170Z,0.52
2023-04-15T13:01:42.254Z,0.52
2023-04-15T13:02:42.402Z,0.50
2023-04-15T13:03:42.443Z,0.52
2023-04-15T13:04:42.298Z,0.53
2023-04-15T13:05:42.317Z,0.52
2023-04-15T13:06:42.346Z,0.51
2023-04-15T13:07:42.398Z,0.52
2023-04-15T13:08:51.236Z,0.51
2023-04-15T13:09:43.418Z,0.52
2023-04-15T13:10:42.562Z,0.52
2023-04-15T13:11:42.484Z,0.52
2023-04-15T13:12:42.397Z,0.52
2023-04-15T13:13:42.368Z,0.52
2023-04-15T13:14:42.417Z,0.52
2023-04-15T13:15:42.358Z,0.52
2023-04-15T13:16:42.362Z,0.53
2023-04-15T13:17:42.358Z,0.52
2023-04-15T13:18:42.356Z,0.51
2023-04-15T13:19:42.367Z,0.52